sensor_id;sensor_type;location;lat;lon;timestamp;P1;durP1;ratioP1;P2;durP2;ratioP2
10705;SDS011;5404;42.656;23.336;2024-01-30T00:01:15;46.38;;;15.88;;
10705;SDS011;5404;42.656;23.336;2024-01-30T00:03:41;72.10;;;22.95;;
10705;SDS011;5404;42.656;23.336;2024-01-30T00:06:08;59.80;;;20.38;;
10705;SDS011;5404;42.656;23.336;2024-01-30T00:08:33;51.30;;;18.58;;
10705;SDS011;5404;42.656;23.336;2024-01-30T00:10:59;29.23;;;12.98;;
10705;SDS011;5404;42.656;23.336;2024-01-30T00:13:26;25.05;;;11.88;;
10705;SDS011;5404;42.656;23.336;2024-01-30T00:15:52;25.25;;;10.60;;
10705;SDS011;5404;42.656;23.336;2024-01-30T00:18:17;17.15;;;7.35;;
10705;SDS011;5404;42.656;23.336;2024-01-30T00:20:43;15.98;;;7.88;;
10705;SDS011;5404;42.656;23.336;2024-01-30T00:23:09;20.58;;;7.88;;
10705;SDS011;5404;42.656;23.336;2024-01-30T00:25:34;14.38;;;6.97;;
10705;SDS011;5404;42.656;23.336;2024-01-30T00:28:00;15.00;;;7.00;;
10705;SDS011;5404;42.656;23.336;2024-01-30T00:30:26;12.68;;;6.63;;
10705;SDS011;5404;42.656;23.336;2024-01-30T00:32:51;14.85;;;6.80;;
10705;SDS011;5404;42.656;23.336;2024-01-30T00:35:17;13.45;;;6.75;;
10705;SDS011;5404;42.656;23.336;2024-01-30T00:37:42;18.05;;;8.93;;
10705;SDS011;5404;42.656;23.336;2024-01-30T00:40:09;28.05;;;11.15;;
10705;SDS011;5404;42.656;23.336;2024-01-30T00:42:40;41.60;;;13.43;;
10705;SDS011;5404;42.656;23.336;2024-01-30T00:45:12;66.82;;;22.80;;
10705;SDS011;5404;42.656;23.336;2024-01-30T00:47:40;51.25;;;19.17;;
10705;SDS011;5404;42.656;23.336;2024-01-30T00:50:06;26.58;;;10.93;;
10705;SDS011;5404;42.656;23.336;2024-01-30T00:52:32;24.50;;;11.10;;
10705;SDS011;5404;42.656;23.336;2024-01-30T00:54:58;32.75;;;14.45;;
10705;SDS011;5404;42.656;23.336;2024-01-30T00:57:24;39.83;;;14.45;;
10705;SDS011;5404;42.656;23.336;2024-01-30T00:59:49;28.73;;;11.48;;
10705;SDS011;5404;42.656;23.336;2024-01-30T01:02:15;20.55;;;9.48;;
10705;SDS011;5404;42.656;23.336;2024-01-30T01:04:42;21.58;;;10.15;;
10705;SDS011;5404;42.656;23.336;2024-01-30T01:07:09;61.80;;;21.83;;
10705;SDS011;5404;42.656;23.336;2024-01-30T01:09:34;17.83;;;7.72;;
10705;SDS011;5404;42.656;23.336;2024-01-30T01:12:02;18.13;;;8.05;;
10705;SDS011;5404;42.656;23.336;2024-01-30T01:14:28;28.00;;;11.45;;
10705;SDS011;5404;42.656;23.336;2024-01-30T01:16:53;105.28;;;30.42;;
10705;SDS011;5404;42.656;23.336;2024-01-30T01:19:19;25.15;;;10.95;;
10705;SDS011;5404;42.656;23.336;2024-01-30T01:21:44;31.80;;;11.63;;
10705;SDS011;5404;42.656;23.336;2024-01-30T01:24:09;28.98;;;12.05;;
10705;SDS011;5404;42.656;23.336;2024-01-30T01:26:35;16.60;;;9.38;;
10705;SDS011;5404;42.656;23.336;2024-01-30T01:29:00;22.00;;;10.23;;
10705;SDS011;5404;42.656;23.336;2024-01-30T01:31:26;21.85;;;8.45;;
10705;SDS011;5404;42.656;23.336;2024-01-30T01:36:20;17.38;;;8.32;;
10705;SDS011;5404;42.656;23.336;2024-01-30T01:38:45;17.58;;;8.38;;
10705;SDS011;5404;42.656;23.336;2024-01-30T01:41:10;16.42;;;8.27;;
10705;SDS011;5404;42.656;23.336;2024-01-30T01:43:36;17.83;;;8.00;;
10705;SDS011;5404;42.656;23.336;2024-01-30T01:46:04;23.77;;;9.38;;
10705;SDS011;5404;42.656;23.336;2024-01-30T01:48:31;19.13;;;9.75;;
10705;SDS011;5404;42.656;23.336;2024-01-30T01:50:57;29.95;;;12.32;;
10705;SDS011;5404;42.656;23.336;2024-01-30T01:53:23;29.63;;;12.70;;
10705;SDS011;5404;42.656;23.336;2024-01-30T01:55:50;78.75;;;25.98;;
10705;SDS011;5404;42.656;23.336;2024-01-30T01:58:17;76.10;;;28.38;;
10705;SDS011;5404;42.656;23.336;2024-01-30T02:00:45;112.53;;;35.03;;
10705;SDS011;5404;42.656;23.336;2024-01-30T02:03:11;108.88;;;33.08;;
10705;SDS011;5404;42.656;23.336;2024-01-30T02:05:39;117.82;;;38.00;;
10705;SDS011;5404;42.656;23.336;2024-01-30T02:08:05;100.03;;;33.35;;
10705;SDS011;5404;42.656;23.336;2024-01-30T02:10:31;82.07;;;26.20;;
10705;SDS011;5404;42.656;23.336;2024-01-30T02:12:57;89.53;;;27.50;;
10705;SDS011;5404;42.656;23.336;2024-01-30T02:15:22;84.80;;;27.50;;
10705;SDS011;5404;42.656;23.336;2024-01-30T02:17:48;69.78;;;25.27;;
10705;SDS011;5404;42.656;23.336;2024-01-30T02:20:13;73.30;;;25.85;;
10705;SDS011;5404;42.656;23.336;2024-01-30T02:22:38;17.02;;;8.32;;
10705;SDS011;5404;42.656;23.336;2024-01-30T02:25:05;26.55;;;10.60;;
10705;SDS011;5404;42.656;23.336;2024-01-30T02:27:31;24.88;;;10.85;;
10705;SDS011;5404;42.656;23.336;2024-01-30T02:29:56;13.25;;;7.15;;
10705;SDS011;5404;42.656;23.336;2024-01-30T02:32:22;13.65;;;6.63;;
10705;SDS011;5404;42.656;23.336;2024-01-30T02:34:47;41.83;;;13.93;;
10705;SDS011;5404;42.656;23.336;2024-01-30T02:37:13;27.48;;;9.05;;
10705;SDS011;5404;42.656;23.336;2024-01-30T02:39:38;204.93;;;63.70;;
10705;SDS011;5404;42.656;23.336;2024-01-30T02:42:03;29.08;;;12.95;;
10705;SDS011;5404;42.656;23.336;2024-01-30T02:44:29;19.95;;;8.60;;
10705;SDS011;5404;42.656;23.336;2024-01-30T02:46:54;12.73;;;6.35;;
10705;SDS011;5404;42.656;23.336;2024-01-30T02:49:20;12.80;;;6.15;;
10705;SDS011;5404;42.656;23.336;2024-01-30T02:51:46;13.60;;;6.40;;
10705;SDS011;5404;42.656;23.336;2024-01-30T02:54:11;12.07;;;6.13;;
10705;SDS011;5404;42.656;23.336;2024-01-30T02:56:37;10.00;;;5.75;;
10705;SDS011;5404;42.656;23.336;2024-01-30T02:59:02;10.30;;;5.30;;
10705;SDS011;5404;42.656;23.336;2024-01-30T03:01:27;11.35;;;6.07;;
10705;SDS011;5404;42.656;23.336;2024-01-30T03:03:53;10.85;;;6.30;;
10705;SDS011;5404;42.656;23.336;2024-01-30T03:06:18;10.95;;;5.50;;
10705;SDS011;5404;42.656;23.336;2024-01-30T03:08:45;10.43;;;5.50;;
10705;SDS011;5404;42.656;23.336;2024-01-30T03:11:10;11.48;;;5.55;;
10705;SDS011;5404;42.656;23.336;2024-01-30T03:13:36;9.73;;;4.85;;
10705;SDS011;5404;42.656;23.336;2024-01-30T03:16:01;8.85;;;4.95;;
10705;SDS011;5404;42.656;23.336;2024-01-30T03:18:27;11.13;;;6.05;;
10705;SDS011;5404;42.656;23.336;2024-01-30T03:20:52;10.15;;;5.95;;
10705;SDS011;5404;42.656;23.336;2024-01-30T03:23:17;11.73;;;5.50;;
10705;SDS011;5404;42.656;23.336;2024-01-30T03:25:43;20.50;;;6.07;;
10705;SDS011;5404;42.656;23.336;2024-01-30T03:28:08;7.63;;;4.45;;
10705;SDS011;5404;42.656;23.336;2024-01-30T03:30:34;9.90;;;4.50;;
10705;SDS011;5404;42.656;23.336;2024-01-30T03:32:59;11.65;;;5.43;;
10705;SDS011;5404;42.656;23.336;2024-01-30T03:35:25;9.98;;;5.22;;
10705;SDS011;5404;42.656;23.336;2024-01-30T03:37:50;8.77;;;4.95;;
10705;SDS011;5404;42.656;23.336;2024-01-30T03:40:15;15.93;;;5.28;;
10705;SDS011;5404;42.656;23.336;2024-01-30T03:42:41;9.85;;;5.43;;
10705;SDS011;5404;42.656;23.336;2024-01-30T03:45:07;8.55;;;5.35;;
10705;SDS011;5404;42.656;23.336;2024-01-30T03:47:32;9.30;;;5.57;;
10705;SDS011;5404;42.656;23.336;2024-01-30T03:49:58;11.07;;;5.40;;
10705;SDS011;5404;42.656;23.336;2024-01-30T03:52:23;13.30;;;4.78;;
10705;SDS011;5404;42.656;23.336;2024-01-30T03:54:48;10.93;;;5.63;;
10705;SDS011;5404;42.656;23.336;2024-01-30T03:57:14;12.95;;;5.28;;
10705;SDS011;5404;42.656;23.336;2024-01-30T03:59:41;8.05;;;4.90;;
10705;SDS011;5404;42.656;23.336;2024-01-30T04:02:10;10.80;;;4.90;;
10705;SDS011;5404;42.656;23.336;2024-01-30T04:04:36;12.73;;;5.70;;
10705;SDS011;5404;42.656;23.336;2024-01-30T04:07:02;9.70;;;5.57;;
10705;SDS011;5404;42.656;23.336;2024-01-30T04:09:27;8.15;;;5.03;;
10705;SDS011;5404;42.656;23.336;2024-01-30T04:11:53;9.40;;;5.43;;
10705;SDS011;5404;42.656;23.336;2024-01-30T04:14:19;10.35;;;5.18;;
10705;SDS011;5404;42.656;23.336;2024-01-30T04:16:44;11.43;;;4.95;;
10705;SDS011;5404;42.656;23.336;2024-01-30T04:19:10;11.23;;;5.97;;
10705;SDS011;5404;42.656;23.336;2024-01-30T04:21:35;13.50;;;6.68;;
10705;SDS011;5404;42.656;23.336;2024-01-30T04:24:00;12.23;;;6.05;;
10705;SDS011;5404;42.656;23.336;2024-01-30T04:26:26;13.77;;;6.32;;
10705;SDS011;5404;42.656;23.336;2024-01-30T04:28:51;9.45;;;5.25;;
10705;SDS011;5404;42.656;23.336;2024-01-30T04:31:17;8.63;;;5.13;;
10705;SDS011;5404;42.656;23.336;2024-01-30T04:33:43;7.72;;;4.32;;
10705;SDS011;5404;42.656;23.336;2024-01-30T04:36:08;10.05;;;4.40;;
10705;SDS011;5404;42.656;23.336;2024-01-30T04:41:04;7.93;;;4.28;;
10705;SDS011;5404;42.656;23.336;2024-01-30T04:43:29;8.80;;;4.57;;
10705;SDS011;5404;42.656;23.336;2024-01-30T04:45:55;8.57;;;4.93;;
10705;SDS011;5404;42.656;23.336;2024-01-30T04:48:21;8.25;;;4.53;;
10705;SDS011;5404;42.656;23.336;2024-01-30T04:50:46;7.75;;;5.10;;
10705;SDS011;5404;42.656;23.336;2024-01-30T04:53:13;8.20;;;4.03;;
10705;SDS011;5404;42.656;23.336;2024-01-30T04:55:38;8.45;;;4.90;;
10705;SDS011;5404;42.656;23.336;2024-01-30T04:58:04;10.18;;;5.15;;
10705;SDS011;5404;42.656;23.336;2024-01-30T05:00:29;8.73;;;4.68;;
10705;SDS011;5404;42.656;23.336;2024-01-30T05:02:55;9.07;;;4.68;;
10705;SDS011;5404;42.656;23.336;2024-01-30T05:05:22;9.30;;;5.47;;
10705;SDS011;5404;42.656;23.336;2024-01-30T05:07:48;13.27;;;5.88;;
10705;SDS011;5404;42.656;23.336;2024-01-30T05:10:13;8.32;;;4.88;;
10705;SDS011;5404;42.656;23.336;2024-01-30T05:12:39;10.27;;;5.30;;
10705;SDS011;5404;42.656;23.336;2024-01-30T05:15:05;9.02;;;4.72;;
10705;SDS011;5404;42.656;23.336;2024-01-30T05:17:31;8.95;;;4.50;;
10705;SDS011;5404;42.656;23.336;2024-01-30T05:19:56;11.23;;;4.95;;
10705;SDS011;5404;42.656;23.336;2024-01-30T05:22:22;10.43;;;4.97;;
10705;SDS011;5404;42.656;23.336;2024-01-30T05:24:47;11.55;;;4.32;;
10705;SDS011;5404;42.656;23.336;2024-01-30T05:27:13;11.65;;;4.80;;
10705;SDS011;5404;42.656;23.336;2024-01-30T05:29:39;10.70;;;5.78;;
10705;SDS011;5404;42.656;23.336;2024-01-30T05:32:05;9.45;;;5.38;;
10705;SDS011;5404;42.656;23.336;2024-01-30T05:34:31;11.77;;;6.38;;
10705;SDS011;5404;42.656;23.336;2024-01-30T05:36:57;14.20;;;6.63;;
10705;SDS011;5404;42.656;23.336;2024-01-30T05:39:23;17.80;;;6.47;;
10705;SDS011;5404;42.656;23.336;2024-01-30T05:41:50;34.70;;;6.03;;
10705;SDS011;5404;42.656;23.336;2024-01-30T05:44:15;13.57;;;6.85;;
10705;SDS011;5404;42.656;23.336;2024-01-30T05:46:41;13.43;;;6.43;;
10705;SDS011;5404;42.656;23.336;2024-01-30T05:49:06;13.85;;;6.93;;
10705;SDS011;5404;42.656;23.336;2024-01-30T05:51:32;15.60;;;6.72;;
10705;SDS011;5404;42.656;23.336;2024-01-30T05:53:57;15.20;;;6.82;;
10705;SDS011;5404;42.656;23.336;2024-01-30T05:56:23;17.30;;;7.40;;
10705;SDS011;5404;42.656;23.336;2024-01-30T05:58:49;28.02;;;7.53;;
10705;SDS011;5404;42.656;23.336;2024-01-30T06:01:18;13.75;;;6.75;;
10705;SDS011;5404;42.656;23.336;2024-01-30T06:03:43;17.35;;;7.05;;
10705;SDS011;5404;42.656;23.336;2024-01-30T06:06:09;21.92;;;7.30;;
10705;SDS011;5404;42.656;23.336;2024-01-30T06:08:34;20.80;;;7.55;;
10705;SDS011;5404;42.656;23.336;2024-01-30T06:11:00;23.80;;;8.00;;
10705;SDS011;5404;42.656;23.336;2024-01-30T06:13:26;49.78;;;9.20;;
10705;SDS011;5404;42.656;23.336;2024-01-30T06:15:51;25.67;;;9.35;;
10705;SDS011;5404;42.656;23.336;2024-01-30T06:18:17;33.42;;;9.85;;
10705;SDS011;5404;42.656;23.336;2024-01-30T06:20:42;23.10;;;8.38;;
10705;SDS011;5404;42.656;23.336;2024-01-30T06:23:08;35.03;;;9.05;;
10705;SDS011;5404;42.656;23.336;2024-01-30T06:25:34;25.67;;;9.40;;
10705;SDS011;5404;42.656;23.336;2024-01-30T06:27:59;29.90;;;9.88;;
10705;SDS011;5404;42.656;23.336;2024-01-30T06:30:24;22.02;;;9.90;;
10705;SDS011;5404;42.656;23.336;2024-01-30T06:32:50;29.48;;;9.13;;
10705;SDS011;5404;42.656;23.336;2024-01-30T06:35:15;21.92;;;9.75;;
10705;SDS011;5404;42.656;23.336;2024-01-30T06:37:42;19.35;;;9.85;;
10705;SDS011;5404;42.656;23.336;2024-01-30T06:40:08;26.00;;;9.93;;
10705;SDS011;5404;42.656;23.336;2024-01-30T06:42:33;24.90;;;9.32;;
10705;SDS011;5404;42.656;23.336;2024-01-30T06:44:59;20.40;;;7.75;;
10705;SDS011;5404;42.656;23.336;2024-01-30T06:47:24;28.00;;;9.02;;
10705;SDS011;5404;42.656;23.336;2024-01-30T06:49:50;22.13;;;7.82;;
10705;SDS011;5404;42.656;23.336;2024-01-30T06:52:15;23.60;;;8.90;;
10705;SDS011;5404;42.656;23.336;2024-01-30T06:54:40;44.28;;;12.35;;
10705;SDS011;5404;42.656;23.336;2024-01-30T06:57:06;22.33;;;9.18;;
10705;SDS011;5404;42.656;23.336;2024-01-30T06:59:37;21.50;;;8.20;;
10705;SDS011;5404;42.656;23.336;2024-01-30T07:02:07;24.23;;;9.05;;
10705;SDS011;5404;42.656;23.336;2024-01-30T07:04:33;32.17;;;9.63;;
10705;SDS011;5404;42.656;23.336;2024-01-30T07:06:58;29.27;;;9.35;;
10705;SDS011;5404;42.656;23.336;2024-01-30T07:09:24;26.55;;;8.77;;
10705;SDS011;5404;42.656;23.336;2024-01-30T07:11:49;14.48;;;5.57;;
10705;SDS011;5404;42.656;23.336;2024-01-30T07:14:14;11.25;;;5.10;;
10705;SDS011;5404;42.656;23.336;2024-01-30T07:16:40;15.52;;;5.82;;
10705;SDS011;5404;42.656;23.336;2024-01-30T07:19:05;16.40;;;5.85;;
10705;SDS011;5404;42.656;23.336;2024-01-30T07:21:31;10.80;;;4.63;;
10705;SDS011;5404;42.656;23.336;2024-01-30T07:23:56;7.00;;;3.45;;
10705;SDS011;5404;42.656;23.336;2024-01-30T07:26:22;5.38;;;3.25;;
10705;SDS011;5404;42.656;23.336;2024-01-30T07:28:48;5.25;;;3.80;;
10705;SDS011;5404;42.656;23.336;2024-01-30T07:31:13;12.13;;;4.13;;
10705;SDS011;5404;42.656;23.336;2024-01-30T07:33:39;7.85;;;3.42;;
10705;SDS011;5404;42.656;23.336;2024-01-30T07:36:04;6.35;;;3.13;;
10705;SDS011;5404;42.656;23.336;2024-01-30T07:38:33;10.65;;;3.67;;
10705;SDS011;5404;42.656;23.336;2024-01-30T07:40:58;7.03;;;3.63;;
10705;SDS011;5404;42.656;23.336;2024-01-30T07:43:24;5.13;;;2.97;;
10705;SDS011;5404;42.656;23.336;2024-01-30T07:45:49;6.03;;;3.53;;
10705;SDS011;5404;42.656;23.336;2024-01-30T07:48:15;11.77;;;4.25;;
10705;SDS011;5404;42.656;23.336;2024-01-30T07:50:40;7.13;;;4.22;;
10705;SDS011;5404;42.656;23.336;2024-01-30T07:53:06;13.40;;;3.65;;
10705;SDS011;5404;42.656;23.336;2024-01-30T07:55:32;10.75;;;3.78;;
10705;SDS011;5404;42.656;23.336;2024-01-30T07:57:58;5.97;;;3.30;;
10705;SDS011;5404;42.656;23.336;2024-01-30T08:00:26;10.70;;;3.55;;
10705;SDS011;5404;42.656;23.336;2024-01-30T08:02:52;7.93;;;3.88;;
10705;SDS011;5404;42.656;23.336;2024-01-30T08:05:19;16.65;;;4.13;;
10705;SDS011;5404;42.656;23.336;2024-01-30T08:07:47;6.07;;;3.67;;
10705;SDS011;5404;42.656;23.336;2024-01-30T08:10:14;14.73;;;3.95;;
10705;SDS011;5404;42.656;23.336;2024-01-30T08:12:39;12.85;;;3.97;;
10705;SDS011;5404;42.656;23.336;2024-01-30T08:15:05;9.98;;;3.53;;
10705;SDS011;5404;42.656;23.336;2024-01-30T08:17:31;4.78;;;3.15;;
10705;SDS011;5404;42.656;23.336;2024-01-30T08:19:56;9.25;;;5.65;;
10705;SDS011;5404;42.656;23.336;2024-01-30T08:22:21;5.80;;;3.05;;
10705;SDS011;5404;42.656;23.336;2024-01-30T08:24:47;10.48;;;4.65;;
10705;SDS011;5404;42.656;23.336;2024-01-30T08:27:12;8.48;;;3.80;;
10705;SDS011;5404;42.656;23.336;2024-01-30T08:29:38;9.48;;;4.45;;
10705;SDS011;5404;42.656;23.336;2024-01-30T08:32:04;11.77;;;4.78;;
10705;SDS011;5404;42.656;23.336;2024-01-30T08:34:30;11.98;;;5.22;;
10705;SDS011;5404;42.656;23.336;2024-01-30T08:36:56;21.05;;;4.80;;
10705;SDS011;5404;42.656;23.336;2024-01-30T08:39:21;7.20;;;3.67;;
10705;SDS011;5404;42.656;23.336;2024-01-30T08:41:47;8.70;;;3.85;;
10705;SDS011;5404;42.656;23.336;2024-01-30T08:44:12;8.80;;;4.20;;
10705;SDS011;5404;42.656;23.336;2024-01-30T08:46:37;7.18;;;4.15;;
10705;SDS011;5404;42.656;23.336;2024-01-30T08:49:03;10.32;;;4.35;;
10705;SDS011;5404;42.656;23.336;2024-01-30T08:51:31;8.20;;;4.40;;
10705;SDS011;5404;42.656;23.336;2024-01-30T08:53:57;10.10;;;4.38;;
10705;SDS011;5404;42.656;23.336;2024-01-30T08:56:22;10.95;;;4.00;;
10705;SDS011;5404;42.656;23.336;2024-01-30T08:58:48;8.32;;;4.65;;
10705;SDS011;5404;42.656;23.336;2024-01-30T09:01:14;16.55;;;4.75;;
10705;SDS011;5404;42.656;23.336;2024-01-30T09:03:39;9.35;;;4.63;;
10705;SDS011;5404;42.656;23.336;2024-01-30T09:06:09;14.95;;;5.78;;
10705;SDS011;5404;42.656;23.336;2024-01-30T09:08:35;17.73;;;5.85;;
10705;SDS011;5404;42.656;23.336;2024-01-30T09:11:00;11.68;;;5.15;;
10705;SDS011;5404;42.656;23.336;2024-01-30T09:13:26;16.35;;;5.13;;
10705;SDS011;5404;42.656;23.336;2024-01-30T09:15:51;9.35;;;5.15;;
10705;SDS011;5404;42.656;23.336;2024-01-30T09:18:17;13.88;;;5.32;;
10705;SDS011;5404;42.656;23.336;2024-01-30T09:20:43;9.43;;;5.00;;
10705;SDS011;5404;42.656;23.336;2024-01-30T09:25:37;9.48;;;5.13;;
10705;SDS011;5404;42.656;23.336;2024-01-30T09:28:03;10.57;;;5.20;;
10705;SDS011;5404;42.656;23.336;2024-01-30T09:30:28;12.75;;;6.63;;
10705;SDS011;5404;42.656;23.336;2024-01-30T09:32:54;11.10;;;6.20;;
10705;SDS011;5404;42.656;23.336;2024-01-30T09:35:19;10.77;;;5.03;;
10705;SDS011;5404;42.656;23.336;2024-01-30T09:37:45;9.63;;;5.07;;
10705;SDS011;5404;42.656;23.336;2024-01-30T09:40:10;23.90;;;5.15;;
10705;SDS011;5404;42.656;23.336;2024-01-30T09:42:36;10.75;;;5.20;;
10705;SDS011;5404;42.656;23.336;2024-01-30T09:45:02;8.73;;;4.45;;
10705;SDS011;5404;42.656;23.336;2024-01-30T09:47:32;9.82;;;5.25;;
10705;SDS011;5404;42.656;23.336;2024-01-30T09:50:02;9.68;;;4.97;;
10705;SDS011;5404;42.656;23.336;2024-01-30T09:52:28;7.90;;;4.85;;
10705;SDS011;5404;42.656;23.336;2024-01-30T09:54:53;11.68;;;5.97;;
10705;SDS011;5404;42.656;23.336;2024-01-30T09:57:19;18.38;;;6.93;;
10705;SDS011;5404;42.656;23.336;2024-01-30T09:59:47;9.02;;;5.28;;
10705;SDS011;5404;42.656;23.336;2024-01-30T10:02:13;9.07;;;5.10;;
10705;SDS011;5404;42.656;23.336;2024-01-30T10:04:38;12.23;;;5.65;;
10705;SDS011;5404;42.656;23.336;2024-01-30T10:07:05;7.82;;;4.93;;
10705;SDS011;5404;42.656;23.336;2024-01-30T10:09:33;9.57;;;4.82;;
10705;SDS011;5404;42.656;23.336;2024-01-30T10:12:02;9.27;;;4.75;;
10705;SDS011;5404;42.656;23.336;2024-01-30T10:14:28;12.82;;;5.50;;
10705;SDS011;5404;42.656;23.336;2024-01-30T10:16:55;10.70;;;5.13;;
10705;SDS011;5404;42.656;23.336;2024-01-30T10:19:21;11.05;;;5.05;;
10705;SDS011;5404;42.656;23.336;2024-01-30T10:21:46;9.80;;;6.53;;
10705;SDS011;5404;42.656;23.336;2024-01-30T10:24:11;11.48;;;4.68;;
10705;SDS011;5404;42.656;23.336;2024-01-30T10:26:39;7.20;;;4.32;;
10705;SDS011;5404;42.656;23.336;2024-01-30T10:29:05;7.68;;;5.50;;
10705;SDS011;5404;42.656;23.336;2024-01-30T10:31:30;8.38;;;4.72;;
10705;SDS011;5404;42.656;23.336;2024-01-30T10:33:56;8.57;;;4.45;;
10705;SDS011;5404;42.656;23.336;2024-01-30T10:36:21;15.52;;;5.25;;
10705;SDS011;5404;42.656;23.336;2024-01-30T10:38:53;8.48;;;5.00;;
10705;SDS011;5404;42.656;23.336;2024-01-30T10:41:24;21.52;;;7.32;;
10705;SDS011;5404;42.656;23.336;2024-01-30T10:43:58;11.45;;;4.72;;
10705;SDS011;5404;42.656;23.336;2024-01-30T10:46:33;7.75;;;4.32;;
10705;SDS011;5404;42.656;23.336;2024-01-30T10:49:00;5.00;;;3.67;;
10705;SDS011;5404;42.656;23.336;2024-01-30T10:51:26;11.35;;;4.97;;
10705;SDS011;5404;42.656;23.336;2024-01-30T10:53:53;9.25;;;4.75;;
10705;SDS011;5404;42.656;23.336;2024-01-30T10:56:21;9.85;;;4.13;;
10705;SDS011;5404;42.656;23.336;2024-01-30T10:58:50;9.30;;;4.75;;
10705;SDS011;5404;42.656;23.336;2024-01-30T11:01:21;10.13;;;4.15;;
10705;SDS011;5404;42.656;23.336;2024-01-30T11:03:51;6.57;;;4.20;;
10705;SDS011;5404;42.656;23.336;2024-01-30T11:06:17;11.95;;;4.43;;
10705;SDS011;5404;42.656;23.336;2024-01-30T11:08:46;12.35;;;3.97;;
10705;SDS011;5404;42.656;23.336;2024-01-30T11:14:38;5.55;;;4.07;;
10705;SDS011;5404;42.656;23.336;2024-01-30T11:17:08;7.93;;;4.22;;
10705;SDS011;5404;42.656;23.336;2024-01-30T11:19:37;6.95;;;4.18;;
10705;SDS011;5404;42.656;23.336;2024-01-30T11:22:02;9.95;;;4.18;;
10705;SDS011;5404;42.656;23.336;2024-01-30T11:24:27;6.55;;;4.07;;
10705;SDS011;5404;42.656;23.336;2024-01-30T11:26:56;13.40;;;4.18;;
10705;SDS011;5404;42.656;23.336;2024-01-30T11:29:29;7.00;;;3.85;;
10705;SDS011;5404;42.656;23.336;2024-01-30T11:34:24;8.40;;;4.07;;
10705;SDS011;5404;42.656;23.336;2024-01-30T11:36:56;5.90;;;3.75;;
10705;SDS011;5404;42.656;23.336;2024-01-30T11:39:26;10.38;;;3.88;;
10705;SDS011;5404;42.656;23.336;2024-01-30T11:41:52;5.80;;;3.75;;
10705;SDS011;5404;42.656;23.336;2024-01-30T11:44:19;11.68;;;4.32;;
10705;SDS011;5404;42.656;23.336;2024-01-30T11:46:46;10.45;;;6.07;;
10705;SDS011;5404;42.656;23.336;2024-01-30T11:49:13;9.02;;;5.15;;
10705;SDS011;5404;42.656;23.336;2024-01-30T11:51:38;11.23;;;4.50;;
10705;SDS011;5404;42.656;23.336;2024-01-30T11:54:04;15.13;;;5.10;;
10705;SDS011;5404;42.656;23.336;2024-01-30T11:56:29;10.80;;;5.70;;
10705;SDS011;5404;42.656;23.336;2024-01-30T11:58:55;7.93;;;4.32;;
10705;SDS011;5404;42.656;23.336;2024-01-30T12:01:21;21.55;;;5.07;;
10705;SDS011;5404;42.656;23.336;2024-01-30T12:03:50;12.10;;;5.22;;
10705;SDS011;5404;42.656;23.336;2024-01-30T12:08:41;21.13;;;4.70;;
10705;SDS011;5404;42.656;23.336;2024-01-30T12:11:06;9.88;;;4.30;;
10705;SDS011;5404;42.656;23.336;2024-01-30T12:13:32;8.70;;;4.43;;
10705;SDS011;5404;42.656;23.336;2024-01-30T12:15:58;11.25;;;3.75;;
10705;SDS011;5404;42.656;23.336;2024-01-30T12:18:24;11.60;;;4.63;;
10705;SDS011;5404;42.656;23.336;2024-01-30T12:20:59;18.35;;;4.50;;
10705;SDS011;5404;42.656;23.336;2024-01-30T12:23:25;11.00;;;4.68;;
10705;SDS011;5404;42.656;23.336;2024-01-30T12:25:52;10.45;;;4.85;;
10705;SDS011;5404;42.656;23.336;2024-01-30T12:28:18;14.48;;;6.78;;
10705;SDS011;5404;42.656;23.336;2024-01-30T12:30:45;12.20;;;5.20;;
10705;SDS011;5404;42.656;23.336;2024-01-30T12:33:15;9.98;;;4.28;;
10705;SDS011;5404;42.656;23.336;2024-01-30T12:35:45;9.48;;;4.97;;
10705;SDS011;5404;42.656;23.336;2024-01-30T12:38:13;15.75;;;5.40;;
10705;SDS011;5404;42.656;23.336;2024-01-30T12:40:39;8.43;;;3.95;;
10705;SDS011;5404;42.656;23.336;2024-01-30T12:43:04;7.38;;;3.92;;
10705;SDS011;5404;42.656;23.336;2024-01-30T12:45:30;13.35;;;4.95;;
10705;SDS011;5404;42.656;23.336;2024-01-30T12:47:56;9.60;;;5.00;;
10705;SDS011;5404;42.656;23.336;2024-01-30T12:50:21;11.27;;;4.72;;
10705;SDS011;5404;42.656;23.336;2024-01-30T12:52:47;9.02;;;4.72;;
10705;SDS011;5404;42.656;23.336;2024-01-30T12:55:13;6.22;;;4.50;;
10705;SDS011;5404;42.656;23.336;2024-01-30T12:57:38;8.07;;;4.68;;
10705;SDS011;5404;42.656;23.336;2024-01-30T13:00:04;17.02;;;5.25;;
10705;SDS011;5404;42.656;23.336;2024-01-30T13:02:33;8.30;;;4.50;;
10705;SDS011;5404;42.656;23.336;2024-01-30T13:05:02;11.55;;;4.93;;
10705;SDS011;5404;42.656;23.336;2024-01-30T13:07:30;11.02;;;5.32;;
10705;SDS011;5404;42.656;23.336;2024-01-30T13:09:56;8.57;;;4.47;;
10705;SDS011;5404;42.656;23.336;2024-01-30T13:12:27;14.05;;;4.68;;
10705;SDS011;5404;42.656;23.336;2024-01-30T13:14:53;15.35;;;4.97;;
10705;SDS011;5404;42.656;23.336;2024-01-30T13:17:19;17.08;;;5.45;;
10705;SDS011;5404;42.656;23.336;2024-01-30T13:19:44;18.42;;;5.78;;
10705;SDS011;5404;42.656;23.336;2024-01-30T13:22:09;13.70;;;4.60;;
10705;SDS011;5404;42.656;23.336;2024-01-30T13:24:35;9.55;;;5.07;;
10705;SDS011;5404;42.656;23.336;2024-01-30T13:27:00;11.18;;;4.93;;
10705;SDS011;5404;42.656;23.336;2024-01-30T13:29:26;11.20;;;5.07;;
10705;SDS011;5404;42.656;23.336;2024-01-30T13:31:51;10.10;;;5.22;;
10705;SDS011;5404;42.656;23.336;2024-01-30T13:34:16;13.70;;;5.13;;
10705;SDS011;5404;42.656;23.336;2024-01-30T13:36:42;14.68;;;5.72;;
10705;SDS011;5404;42.656;23.336;2024-01-30T13:39:08;12.88;;;7.00;;
10705;SDS011;5404;42.656;23.336;2024-01-30T13:41:35;13.15;;;6.20;;
10705;SDS011;5404;42.656;23.336;2024-01-30T13:44:02;11.35;;;5.63;;
10705;SDS011;5404;42.656;23.336;2024-01-30T13:46:28;14.73;;;5.32;;
10705;SDS011;5404;42.656;23.336;2024-01-30T13:48:54;12.15;;;5.82;;
10705;SDS011;5404;42.656;23.336;2024-01-30T13:51:21;11.23;;;5.45;;
10705;SDS011;5404;42.656;23.336;2024-01-30T13:53:46;21.20;;;7.10;;
10705;SDS011;5404;42.656;23.336;2024-01-30T13:56:12;13.05;;;6.78;;
10705;SDS011;5404;42.656;23.336;2024-01-30T13:58:37;10.98;;;5.13;;
10705;SDS011;5404;42.656;23.336;2024-01-30T14:01:02;11.88;;;6.32;;
10705;SDS011;5404;42.656;23.336;2024-01-30T14:03:28;21.42;;;9.02;;
10705;SDS011;5404;42.656;23.336;2024-01-30T14:05:54;10.65;;;5.65;;
10705;SDS011;5404;42.656;23.336;2024-01-30T14:08:19;35.97;;;16.98;;
10705;SDS011;5404;42.656;23.336;2024-01-30T14:10:46;10.85;;;4.97;;
10705;SDS011;5404;42.656;23.336;2024-01-30T14:13:12;11.13;;;5.75;;
10705;SDS011;5404;42.656;23.336;2024-01-30T14:15:38;9.77;;;5.13;;
10705;SDS011;5404;42.656;23.336;2024-01-30T14:18:03;10.27;;;5.18;;
10705;SDS011;5404;42.656;23.336;2024-01-30T14:20:30;12.27;;;6.18;;
10705;SDS011;5404;42.656;23.336;2024-01-30T14:22:57;11.70;;;5.35;;
10705;SDS011;5404;42.656;23.336;2024-01-30T14:25:23;8.75;;;5.55;;
10705;SDS011;5404;42.656;23.336;2024-01-30T14:27:49;13.93;;;5.32;;
10705;SDS011;5404;42.656;23.336;2024-01-30T14:30:15;11.68;;;5.53;;
10705;SDS011;5404;42.656;23.336;2024-01-30T14:32:43;13.05;;;6.65;;
10705;SDS011;5404;42.656;23.336;2024-01-30T14:35:10;18.67;;;6.53;;
10705;SDS011;5404;42.656;23.336;2024-01-30T14:37:35;12.18;;;5.15;;
10705;SDS011;5404;42.656;23.336;2024-01-30T14:40:02;26.92;;;6.68;;
10705;SDS011;5404;42.656;23.336;2024-01-30T14:42:28;19.27;;;6.57;;
10705;SDS011;5404;42.656;23.336;2024-01-30T14:44:56;15.10;;;6.63;;